KAL937 RKSI-LOWW
Flight info
| Callsign | KAL937 |
|---|---|
| Flight time | N/A |
| Altitude | 32000 |
| Route | NOPIK Y697 AGAVO/K0926S0920 A591 IKEKA W4 FZ/K0920S0980 W4 HCH W200 DOVIV W55 PAMRU W34 LADIX B339 ASILA A575 UPREK W28 LAGEB W66 NUKTI/K0904S1040 B215 KABDO W119 GOBOK A343 RULAD/K0896F340 M610 ARBOL Z621 ELAHA N147 OTBOR/N0490F340 A480 TIMGA B476 OGLID/N0485F360 B476 METKA L88 RASAM N199 LUSAL M11 REBLO UM11 CRM UL746 ODERO DCT LUGEB DCT SOKRU DCT DEGET DCT BALUX DCT TORNO DCT NATEX |
| Aircraft | B77W/H-SDE1E2E3FGHIJ2J3J4J5M1RWXY/LB1D1 |
Departure
| Time | N/A |
|---|---|
| Airport | Incheon International Airport (RKSI) |
Arrival
| Time | 2026-05-06 04:42 |
|---|---|
| Airport | Vienna International Airport (LOWW) |
| Time | Latitude | Longitude | Altitude | Speed | Heading |
|---|---|---|---|---|---|
| 2026-05-06 04:18 | 47.37998 | 19.35125 | 37936 ft | 432 kts | 214° |
| 2026-05-06 04:18 | 47.35668 | 19.32366 | 37930 ft | 428 kts | 230° |
| 2026-05-06 04:18 | 47.33998 | 19.28772 | 37939 ft | 425 kts | 246° |
| 2026-05-06 04:19 | 47.33089 | 19.24659 | 37943 ft | 423 kts | 261° |
| 2026-05-06 04:19 | 47.32893 | 19.20331 | 37951 ft | 423 kts | 272° |
| 2026-05-06 04:19 | 47.34227 | 19.11942 | 37927 ft | 425 kts | 296° |
| 2026-05-06 04:20 | 47.36892 | 19.04004 | 37949 ft | 438 kts | 294° |
| 2026-05-06 04:20 | 47.39487 | 18.95804 | 37934 ft | 450 kts | 293° |
| 2026-05-06 04:21 | 47.40816 | 18.91542 | 37173 ft | 466 kts | 293° |
| 2026-05-06 04:21 | 47.42176 | 18.87175 | 36613 ft | 466 kts | 293° |
| 2026-05-06 04:21 | 47.43532 | 18.82820 | 35732 ft | 466 kts | 293° |
| 2026-05-06 04:21 | 47.44889 | 18.78460 | 34885 ft | 466 kts | 293° |
| 2026-05-06 04:22 | 47.46243 | 18.74103 | 34015 ft | 466 kts | 294° |
| 2026-05-06 04:22 | 47.47574 | 18.69817 | 33034 ft | 467 kts | 293° |
| 2026-05-06 04:22 | 47.48929 | 18.65443 | 32050 ft | 467 kts | 293° |
| 2026-05-06 04:23 | 47.51635 | 18.56685 | 30283 ft | 466 kts | 293° |
| 2026-05-06 04:23 | 47.52975 | 18.52341 | 29522 ft | 462 kts | 293° |
| 2026-05-06 04:23 | 47.53838 | 18.49468 | 29000 ft | 460 kts | 291° |
| 2026-05-06 04:23 | 47.55243 | 18.43548 | 28060 ft | 452 kts | 286° |
| 2026-05-06 04:24 | 47.56172 | 18.39127 | 27379 ft | 448 kts | 286° |
| 2026-05-06 04:24 | 47.56779 | 18.36210 | 26932 ft | 445 kts | 286° |
| 2026-05-06 04:24 | 47.57993 | 18.30375 | 26045 ft | 441 kts | 286° |
| 2026-05-06 04:24 | 47.58897 | 18.26055 | 25390 ft | 438 kts | 286° |
| 2026-05-06 04:25 | 47.59495 | 18.23204 | 24948 ft | 436 kts | 286° |
| 2026-05-06 04:25 | 47.60391 | 18.18949 | 24319 ft | 433 kts | 286° |
| 2026-05-06 04:25 | 47.61290 | 18.14680 | 23670 ft | 431 kts | 286° |
| 2026-05-06 04:25 | 47.62181 | 18.10448 | 22943 ft | 429 kts | 286° |
| 2026-05-06 04:26 | 47.63066 | 18.06235 | 22252 ft | 426 kts | 286° |
| 2026-05-06 04:26 | 47.63932 | 18.02108 | 21608 ft | 423 kts | 285° |
| 2026-05-06 04:26 | 47.64801 | 17.97956 | 20972 ft | 419 kts | 285° |
| 2026-05-06 04:26 | 47.65663 | 17.93831 | 20352 ft | 416 kts | 285° |
| 2026-05-06 04:27 | 47.66514 | 17.89742 | 19746 ft | 413 kts | 285° |
| 2026-05-06 04:27 | 47.67359 | 17.85677 | 19141 ft | 411 kts | 285° |
| 2026-05-06 04:27 | 47.68198 | 17.81631 | 18523 ft | 409 kts | 285° |
| 2026-05-06 04:27 | 47.69032 | 17.77604 | 17873 ft | 408 kts | 284° |
| 2026-05-06 04:28 | 47.69861 | 17.73592 | 17203 ft | 405 kts | 284° |
| 2026-05-06 04:28 | 47.70682 | 17.69608 | 16575 ft | 403 kts | 284° |
| 2026-05-06 04:28 | 47.71498 | 17.65644 | 15963 ft | 400 kts | 284° |
| 2026-05-06 04:28 | 47.72306 | 17.61707 | 15363 ft | 397 kts | 284° |
| 2026-05-06 04:29 | 47.73110 | 17.57792 | 14764 ft | 395 kts | 284° |
| 2026-05-06 04:29 | 47.73906 | 17.53899 | 14174 ft | 393 kts | 284° |
| 2026-05-06 04:29 | 47.74597 | 17.50016 | 13580 ft | 384 kts | 276° |
| 2026-05-06 04:29 | 47.74560 | 17.46129 | 12930 ft | 370 kts | 260° |
| 2026-05-06 04:30 | 47.74215 | 17.42351 | 12336 ft | 369 kts | 261° |
| 2026-05-06 04:30 | 47.73912 | 17.38575 | 11764 ft | 368 kts | 262° |
| 2026-05-06 04:30 | 47.73627 | 17.34777 | 11051 ft | 371 kts | 262° |
| 2026-05-06 04:30 | 47.73361 | 17.31074 | 10802 ft | 352 kts | 262° |
| 2026-05-06 04:31 | 47.73113 | 17.27577 | 10594 ft | 328 kts | 262° |
| 2026-05-06 04:31 | 47.72880 | 17.24324 | 10457 ft | 306 kts | 262° |
| 2026-05-06 04:31 | 47.72663 | 17.21300 | 10404 ft | 283 kts | 262° |
| 2026-05-06 04:31 | 47.72462 | 17.18495 | 10365 ft | 265 kts | 262° |
| 2026-05-06 04:32 | 47.72266 | 17.15817 | 10288 ft | 257 kts | 261° |
| 2026-05-06 04:32 | 47.72074 | 17.13203 | 10195 ft | 255 kts | 261° |
| 2026-05-06 04:32 | 47.71876 | 17.10523 | 10117 ft | 267 kts | 262° |
| 2026-05-06 04:32 | 47.72007 | 17.07748 | 9896 ft | 278 kts | 287° |
| 2026-05-06 04:33 | 47.73047 | 17.05309 | 9555 ft | 287 kts | 316° |
| 2026-05-06 04:33 | 47.74772 | 17.03897 | 9233 ft | 286 kts | 341° |
| 2026-05-06 04:33 | 47.76684 | 17.03102 | 8918 ft | 285 kts | 343° |
| 2026-05-06 04:33 | 47.78596 | 17.02346 | 8583 ft | 284 kts | 343° |
| 2026-05-06 04:34 | 47.80500 | 17.01597 | 8250 ft | 283 kts | 342° |
| 2026-05-06 04:34 | 47.82401 | 17.00843 | 7932 ft | 282 kts | 342° |
| 2026-05-06 04:34 | 47.84295 | 17.00085 | 7606 ft | 281 kts | 342° |
| 2026-05-06 04:34 | 47.86185 | 16.99322 | 7288 ft | 281 kts | 342° |
| 2026-05-06 04:35 | 47.88068 | 16.98558 | 6958 ft | 281 kts | 342° |
| 2026-05-06 04:35 | 47.89954 | 16.97790 | 6642 ft | 280 kts | 342° |
| 2026-05-06 04:35 | 47.91829 | 16.97024 | 6322 ft | 280 kts | 342° |
| 2026-05-06 04:35 | 47.93705 | 16.96257 | 5975 ft | 276 kts | 342° |
| 2026-05-06 04:36 | 47.95531 | 16.95510 | 5637 ft | 270 kts | 342° |
| 2026-05-06 04:36 | 47.97340 | 16.94768 | 5342 ft | 269 kts | 342° |
| 2026-05-06 04:36 | 47.99039 | 16.93736 | 5004 ft | 260 kts | 320° |
| 2026-05-06 04:36 | 48.00188 | 16.91739 | 4759 ft | 251 kts | 296° |
| 2026-05-06 04:37 | 48.00959 | 16.89411 | 4498 ft | 251 kts | 293° |
| 2026-05-06 04:37 | 48.01725 | 16.87071 | 4282 ft | 250 kts | 294° |
| 2026-05-06 04:37 | 48.02491 | 16.84759 | 4082 ft | 244 kts | 296° |
| 2026-05-06 04:37 | 48.03435 | 16.82685 | 3883 ft | 242 kts | 310° |
| 2026-05-06 04:38 | 48.04630 | 16.81029 | 3821 ft | 232 kts | 318° |
| 2026-05-06 04:38 | 48.05779 | 16.79405 | 3720 ft | 217 kts | 304° |
| 2026-05-06 04:38 | 48.06479 | 16.77511 | 3658 ft | 200 kts | 287° |
| 2026-05-06 04:38 | 48.06787 | 16.75580 | 3527 ft | 190 kts | 276° |
| 2026-05-06 04:39 | 48.06891 | 16.73612 | 3269 ft | 189 kts | 267° |
| 2026-05-06 04:39 | 48.06817 | 16.71678 | 3026 ft | 184 kts | 268° |
| 2026-05-06 04:39 | 48.07109 | 16.69830 | 2559 ft | 184 kts | 288° |
| 2026-05-06 04:39 | 48.07553 | 16.68056 | 2148 ft | 178 kts | 287° |
| 2026-05-06 04:40 | 48.08020 | 16.66413 | 1901 ft | 163 kts | 291° |
| 2026-05-06 04:40 | 48.08496 | 16.64946 | 1693 ft | 149 kts | 291° |
| 2026-05-06 04:40 | 48.08939 | 16.63600 | 1562 ft | 142 kts | 293° |
| 2026-05-06 04:40 | 48.09388 | 16.62272 | 1306 ft | 146 kts | 294° |
| 2026-05-06 04:41 | 48.09820 | 16.60892 | 1095 ft | 149 kts | 294° |
| 2026-05-06 04:41 | 48.10276 | 16.59523 | 928 ft | 146 kts | 294° |
| 2026-05-06 04:41 | 48.10716 | 16.58155 | 733 ft | 146 kts | 294° |
| 2026-05-06 04:41 | 48.11166 | 16.56767 | 628 ft | 146 kts | 293° |
| 2026-05-06 04:42 | 48.11549 | 16.55565 | 625 ft | 104 kts | 296° |
| 2026-05-06 04:42 | 48.11788 | 16.54839 | 621 ft | 51 kts | 296° |
| 2026-05-06 04:42 | 48.11921 | 16.54435 | 623 ft | 45 kts | 296° |
| 2026-05-06 04:42 | 48.12025 | 16.54114 | 628 ft | 19 kts | 296° |
| 2026-05-06 04:43 | 48.12106 | 16.53988 | 620 ft | 15 kts | 340° |
| 2026-05-06 04:43 | 48.12204 | 16.54019 | 626 ft | 15 kts | 46° |
| 2026-05-06 04:43 | 48.12220 | 16.54169 | 625 ft | 16 kts | 108° |
| 2026-05-06 04:43 | 48.12173 | 16.54315 | 624 ft | 16 kts | 116° |
| 2026-05-06 04:44 | 48.12125 | 16.54462 | 624 ft | 16 kts | 116° |
| 2026-05-06 04:44 | 48.12077 | 16.54607 | 619 ft | 16 kts | 116° |
| 2026-05-06 04:44 | 48.12030 | 16.54753 | 628 ft | 16 kts | 116° |
| 2026-05-06 04:44 | 48.11982 | 16.54899 | 625 ft | 16 kts | 116° |
| 2026-05-06 04:45 | 48.11935 | 16.55045 | 622 ft | 16 kts | 116° |
| 2026-05-06 04:45 | 48.11881 | 16.55208 | 621 ft | 18 kts | 116° |
| 2026-05-06 04:45 | 48.11827 | 16.55376 | 628 ft | 18 kts | 116° |
| 2026-05-06 04:45 | 48.11773 | 16.55543 | 628 ft | 18 kts | 116° |
| 2026-05-06 04:46 | 48.11719 | 16.55708 | 625 ft | 18 kts | 116° |
| 2026-05-06 04:46 | 48.11665 | 16.55874 | 625 ft | 18 kts | 116° |
| 2026-05-06 04:46 | 48.11612 | 16.56039 | 616 ft | 17 kts | 116° |
| 2026-05-06 04:46 | 48.11621 | 16.56197 | 618 ft | 17 kts | 41° |
| 2026-05-06 04:47 | 48.11716 | 16.56285 | 624 ft | 16 kts | 25° |
| 2026-05-06 04:47 | 48.11743 | 16.56413 | 624 ft | 15 kts | 112° |
| 2026-05-06 04:47 | 48.11698 | 16.56552 | 624 ft | 15 kts | 116° |
| 2026-05-06 04:47 | 48.11657 | 16.56679 | 624 ft | 11 kts | 116° |
| 2026-05-06 04:48 | 48.11654 | 16.56766 | 628 ft | 7 kts | 49° |
| 2026-05-06 04:48 | 48.11686 | 16.56798 | 625 ft | 3 kts | 29° |
| 2026-05-06 04:48 | 48.11703 | 16.56812 | 626 ft | 2 kts | 27° |
| 2026-05-06 04:48 | 48.11705 | 16.56813 | 626 ft | 0 kts | 27° |
| 2026-05-06 04:49 | 48.11706 | 16.56814 | 626 ft | 0 kts | 26° |